sensor_id;sensor_type;location;lat;lon;timestamp;P1;durP1;ratioP1;P2;durP2;ratioP2
65641;SDS011;52340;-6.720;108.544;2023-07-30T00:00:13;13.05;;;5.63;;
65641;SDS011;52340;-6.720;108.544;2023-07-30T00:01:15;11.30;;;5.82;;
65641;SDS011;52340;-6.720;108.544;2023-07-30T00:02:16;13.65;;;5.60;;
65641;SDS011;52340;-6.720;108.544;2023-07-30T00:03:18;13.40;;;5.50;;
65641;SDS011;52340;-6.720;108.544;2023-07-30T00:04:20;14.88;;;5.97;;
65641;SDS011;52340;-6.720;108.544;2023-07-30T00:05:24;14.73;;;6.20;;
65641;SDS011;52340;-6.720;108.544;2023-07-30T00:06:26;11.90;;;5.32;;
65641;SDS011;52340;-6.720;108.544;2023-07-30T00:07:28;12.00;;;5.47;;
65641;SDS011;52340;-6.720;108.544;2023-07-30T00:08:29;15.35;;;6.25;;
65641;SDS011;52340;-6.720;108.544;2023-07-30T00:09:31;11.52;;;5.57;;
65641;SDS011;52340;-6.720;108.544;2023-07-30T00:10:33;15.38;;;5.80;;
65641;SDS011;52340;-6.720;108.544;2023-07-30T00:11:36;14.18;;;5.90;;
65641;SDS011;52340;-6.720;108.544;2023-07-30T00:12:38;10.18;;;5.40;;
65641;SDS011;52340;-6.720;108.544;2023-07-30T00:13:42;12.98;;;5.85;;
65641;SDS011;52340;-6.720;108.544;2023-07-30T00:14:44;12.30;;;5.50;;
65641;SDS011;52340;-6.720;108.544;2023-07-30T00:15:47;11.10;;;5.70;;
65641;SDS011;52340;-6.720;108.544;2023-07-30T00:16:49;14.10;;;5.93;;
65641;SDS011;52340;-6.720;108.544;2023-07-30T00:17:53;11.60;;;5.68;;
65641;SDS011;52340;-6.720;108.544;2023-07-30T00:18:55;13.93;;;5.60;;
65641;SDS011;52340;-6.720;108.544;2023-07-30T00:19:56;11.75;;;5.55;;
65641;SDS011;52340;-6.720;108.544;2023-07-30T00:21:01;13.85;;;5.32;;
65641;SDS011;52340;-6.720;108.544;2023-07-30T00:22:03;12.77;;;5.43;;
65641;SDS011;52340;-6.720;108.544;2023-07-30T00:23:05;14.75;;;5.88;;
65641;SDS011;52340;-6.720;108.544;2023-07-30T00:24:09;12.35;;;5.95;;
65641;SDS011;52340;-6.720;108.544;2023-07-30T00:25:10;12.45;;;5.43;;
65641;SDS011;52340;-6.720;108.544;2023-07-30T00:26:12;13.00;;;6.13;;
65641;SDS011;52340;-6.720;108.544;2023-07-30T00:27:14;15.50;;;6.13;;
65641;SDS011;52340;-6.720;108.544;2023-07-30T00:28:16;13.85;;;5.90;;
65641;SDS011;52340;-6.720;108.544;2023-07-30T00:29:20;11.32;;;5.70;;
65641;SDS011;52340;-6.720;108.544;2023-07-30T00:30:22;12.95;;;5.78;;
65641;SDS011;52340;-6.720;108.544;2023-07-30T00:31:24;12.55;;;5.90;;
65641;SDS011;52340;-6.720;108.544;2023-07-30T00:32:26;10.85;;;5.80;;
65641;SDS011;52340;-6.720;108.544;2023-07-30T00:33:27;13.00;;;5.75;;
65641;SDS011;52340;-6.720;108.544;2023-07-30T00:34:32;13.10;;;6.30;;
65641;SDS011;52340;-6.720;108.544;2023-07-30T00:35:33;15.90;;;7.00;;
65641;SDS011;52340;-6.720;108.544;2023-07-30T00:36:35;14.70;;;6.97;;
65641;SDS011;52340;-6.720;108.544;2023-07-30T00:37:39;15.20;;;6.53;;
65641;SDS011;52340;-6.720;108.544;2023-07-30T00:38:41;13.32;;;5.72;;
65641;SDS011;52340;-6.720;108.544;2023-07-30T00:39:43;15.52;;;6.60;;
65641;SDS011;52340;-6.720;108.544;2023-07-30T00:40:45;12.98;;;6.20;;
65641;SDS011;52340;-6.720;108.544;2023-07-30T00:41:46;11.38;;;5.57;;
65641;SDS011;52340;-6.720;108.544;2023-07-30T00:42:48;13.75;;;5.78;;
65641;SDS011;52340;-6.720;108.544;2023-07-30T00:43:50;15.38;;;6.05;;
65641;SDS011;52340;-6.720;108.544;2023-07-30T00:44:53;11.18;;;5.78;;
65641;SDS011;52340;-6.720;108.544;2023-07-30T00:45:55;15.18;;;6.35;;
65641;SDS011;52340;-6.720;108.544;2023-07-30T00:46:57;12.15;;;5.90;;
65641;SDS011;52340;-6.720;108.544;2023-07-30T00:47:59;15.10;;;6.25;;
65641;SDS011;52340;-6.720;108.544;2023-07-30T00:49:01;12.60;;;5.90;;
65641;SDS011;52340;-6.720;108.544;2023-07-30T00:50:03;11.55;;;5.78;;
65641;SDS011;52340;-6.720;108.544;2023-07-30T00:51:06;14.65;;;6.07;;
65641;SDS011;52340;-6.720;108.544;2023-07-30T00:52:09;12.75;;;6.65;;
65641;SDS011;52340;-6.720;108.544;2023-07-30T00:53:11;17.38;;;7.43;;
65641;SDS011;52340;-6.720;108.544;2023-07-30T00:54:15;15.40;;;6.72;;
65641;SDS011;52340;-6.720;108.544;2023-07-30T00:55:17;17.00;;;6.68;;
65641;SDS011;52340;-6.720;108.544;2023-07-30T00:56:22;13.50;;;6.28;;
65641;SDS011;52340;-6.720;108.544;2023-07-30T00:57:24;14.77;;;6.32;;
65641;SDS011;52340;-6.720;108.544;2023-07-30T00:58:26;14.18;;;6.82;;
65641;SDS011;52340;-6.720;108.544;2023-07-30T00:59:31;16.08;;;6.25;;
65641;SDS011;52340;-6.720;108.544;2023-07-30T01:00:36;14.68;;;6.43;;
65641;SDS011;52340;-6.720;108.544;2023-07-30T01:01:38;14.48;;;6.70;;
65641;SDS011;52340;-6.720;108.544;2023-07-30T01:02:43;12.82;;;6.18;;
65641;SDS011;52340;-6.720;108.544;2023-07-30T01:03:45;13.00;;;6.85;;
65641;SDS011;52340;-6.720;108.544;2023-07-30T01:04:46;14.60;;;6.95;;
65641;SDS011;52340;-6.720;108.544;2023-07-30T01:05:48;12.63;;;6.40;;
65641;SDS011;52340;-6.720;108.544;2023-07-30T01:06:52;12.25;;;6.57;;
65641;SDS011;52340;-6.720;108.544;2023-07-30T01:07:54;15.73;;;6.93;;
65641;SDS011;52340;-6.720;108.544;2023-07-30T01:08:56;14.30;;;7.63;;
65641;SDS011;52340;-6.720;108.544;2023-07-30T01:09:57;17.25;;;7.25;;
65641;SDS011;52340;-6.720;108.544;2023-07-30T01:11:00;14.23;;;7.20;;
65641;SDS011;52340;-6.720;108.544;2023-07-30T01:12:02;17.50;;;7.07;;
65641;SDS011;52340;-6.720;108.544;2023-07-30T01:13:05;18.08;;;7.15;;
65641;SDS011;52340;-6.720;108.544;2023-07-30T01:14:08;16.45;;;7.43;;
65641;SDS011;52340;-6.720;108.544;2023-07-30T01:15:11;14.02;;;6.35;;
65641;SDS011;52340;-6.720;108.544;2023-07-30T01:16:15;16.15;;;7.28;;
65641;SDS011;52340;-6.720;108.544;2023-07-30T01:17:17;14.23;;;7.22;;
65641;SDS011;52340;-6.720;108.544;2023-07-30T01:18:19;15.60;;;7.60;;
65641;SDS011;52340;-6.720;108.544;2023-07-30T01:19:23;16.27;;;7.10;;
65641;SDS011;52340;-6.720;108.544;2023-07-30T01:20:28;19.02;;;7.38;;
65641;SDS011;52340;-6.720;108.544;2023-07-30T01:21:34;17.08;;;7.28;;
65641;SDS011;52340;-6.720;108.544;2023-07-30T01:22:39;15.60;;;7.22;;
65641;SDS011;52340;-6.720;108.544;2023-07-30T01:23:41;18.52;;;7.47;;
65641;SDS011;52340;-6.720;108.544;2023-07-30T01:24:42;17.27;;;7.00;;
65641;SDS011;52340;-6.720;108.544;2023-07-30T01:25:44;17.23;;;7.22;;
65641;SDS011;52340;-6.720;108.544;2023-07-30T01:26:48;15.00;;;6.97;;
65641;SDS011;52340;-6.720;108.544;2023-07-30T01:27:52;14.32;;;6.47;;
65641;SDS011;52340;-6.720;108.544;2023-07-30T01:28:56;16.63;;;6.70;;
65641;SDS011;52340;-6.720;108.544;2023-07-30T01:30:06;16.63;;;6.60;;
65641;SDS011;52340;-6.720;108.544;2023-07-30T01:31:12;14.43;;;6.53;;
65641;SDS011;52340;-6.720;108.544;2023-07-30T01:32:19;14.35;;;6.25;;
65641;SDS011;52340;-6.720;108.544;2023-07-30T01:33:23;16.80;;;6.00;;
65641;SDS011;52340;-6.720;108.544;2023-07-30T01:34:27;12.85;;;6.28;;
65641;SDS011;52340;-6.720;108.544;2023-07-30T01:35:33;15.82;;;6.40;;
65641;SDS011;52340;-6.720;108.544;2023-07-30T01:36:38;14.43;;;6.20;;
65641;SDS011;52340;-6.720;108.544;2023-07-30T01:37:40;11.65;;;6.47;;
65641;SDS011;52340;-6.720;108.544;2023-07-30T01:38:42;17.38;;;6.00;;
65641;SDS011;52340;-6.720;108.544;2023-07-30T01:39:44;13.02;;;6.80;;
65641;SDS011;52340;-6.720;108.544;2023-07-30T01:40:47;15.93;;;6.45;;
65641;SDS011;52340;-6.720;108.544;2023-07-30T01:41:49;15.13;;;6.50;;
65641;SDS011;52340;-6.720;108.544;2023-07-30T01:42:51;18.00;;;6.70;;
65641;SDS011;52340;-6.720;108.544;2023-07-30T01:43:53;15.10;;;6.30;;
65641;SDS011;52340;-6.720;108.544;2023-07-30T01:44:55;13.45;;;6.20;;
65641;SDS011;52340;-6.720;108.544;2023-07-30T01:45:56;16.63;;;6.80;;
65641;SDS011;52340;-6.720;108.544;2023-07-30T01:46:58;17.02;;;6.65;;
65641;SDS011;52340;-6.720;108.544;2023-07-30T01:48:00;17.45;;;6.15;;
65641;SDS011;52340;-6.720;108.544;2023-07-30T01:49:02;15.80;;;6.70;;
65641;SDS011;52340;-6.720;108.544;2023-07-30T01:50:04;12.43;;;6.00;;
65641;SDS011;52340;-6.720;108.544;2023-07-30T01:51:06;15.43;;;6.57;;
65641;SDS011;52340;-6.720;108.544;2023-07-30T01:52:09;15.73;;;6.72;;
65641;SDS011;52340;-6.720;108.544;2023-07-30T01:53:11;14.05;;;6.32;;
65641;SDS011;52340;-6.720;108.544;2023-07-30T01:54:13;14.98;;;6.43;;
65641;SDS011;52340;-6.720;108.544;2023-07-30T01:55:17;12.95;;;6.03;;
65641;SDS011;52340;-6.720;108.544;2023-07-30T01:56:19;16.65;;;6.88;;
65641;SDS011;52340;-6.720;108.544;2023-07-30T01:57:20;14.00;;;5.78;;
65641;SDS011;52340;-6.720;108.544;2023-07-30T01:58:22;13.63;;;6.47;;
65641;SDS011;52340;-6.720;108.544;2023-07-30T01:59:24;14.35;;;6.55;;
65641;SDS011;52340;-6.720;108.544;2023-07-30T02:00:25;15.70;;;7.07;;
65641;SDS011;52340;-6.720;108.544;2023-07-30T02:01:27;14.10;;;6.20;;
65641;SDS011;52340;-6.720;108.544;2023-07-30T02:02:29;13.90;;;6.35;;
65641;SDS011;52340;-6.720;108.544;2023-07-30T02:03:31;12.88;;;6.53;;
65641;SDS011;52340;-6.720;108.544;2023-07-30T02:04:32;13.25;;;6.32;;
65641;SDS011;52340;-6.720;108.544;2023-07-30T02:05:34;13.57;;;6.30;;
65641;SDS011;52340;-6.720;108.544;2023-07-30T02:06:36;14.07;;;6.45;;
65641;SDS011;52340;-6.720;108.544;2023-07-30T02:07:39;14.25;;;6.72;;
65641;SDS011;52340;-6.720;108.544;2023-07-30T02:08:41;12.82;;;6.38;;
65641;SDS011;52340;-6.720;108.544;2023-07-30T02:09:47;15.18;;;6.90;;
65641;SDS011;52340;-6.720;108.544;2023-07-30T02:10:54;13.85;;;6.22;;
65641;SDS011;52340;-6.720;108.544;2023-07-30T02:11:56;18.65;;;6.55;;
65641;SDS011;52340;-6.720;108.544;2023-07-30T02:12:58;15.65;;;6.40;;
65641;SDS011;52340;-6.720;108.544;2023-07-30T02:14:00;11.98;;;6.22;;
65641;SDS011;52340;-6.720;108.544;2023-07-30T02:15:05;15.13;;;6.20;;
65641;SDS011;52340;-6.720;108.544;2023-07-30T02:16:07;16.85;;;6.55;;
65641;SDS011;52340;-6.720;108.544;2023-07-30T02:17:09;15.63;;;6.50;;
65641;SDS011;52340;-6.720;108.544;2023-07-30T02:18:11;14.80;;;6.68;;
65641;SDS011;52340;-6.720;108.544;2023-07-30T02:19:12;14.00;;;6.68;;
65641;SDS011;52340;-6.720;108.544;2023-07-30T02:20:14;15.35;;;6.47;;
65641;SDS011;52340;-6.720;108.544;2023-07-30T02:21:16;17.50;;;6.65;;
65641;SDS011;52340;-6.720;108.544;2023-07-30T02:22:18;13.07;;;6.40;;
65641;SDS011;52340;-6.720;108.544;2023-07-30T02:23:21;18.35;;;6.65;;
65641;SDS011;52340;-6.720;108.544;2023-07-30T02:24:23;13.55;;;6.07;;
65641;SDS011;52340;-6.720;108.544;2023-07-30T02:25:27;16.23;;;6.90;;
65641;SDS011;52340;-6.720;108.544;2023-07-30T02:26:29;17.00;;;6.63;;
65641;SDS011;52340;-6.720;108.544;2023-07-30T02:27:31;16.05;;;6.40;;
65641;SDS011;52340;-6.720;108.544;2023-07-30T02:28:33;13.68;;;6.10;;
65641;SDS011;52340;-6.720;108.544;2023-07-30T02:29:34;16.70;;;6.72;;
65641;SDS011;52340;-6.720;108.544;2023-07-30T02:30:36;13.57;;;6.80;;
65641;SDS011;52340;-6.720;108.544;2023-07-30T02:31:38;16.85;;;6.72;;
65641;SDS011;52340;-6.720;108.544;2023-07-30T02:32:41;17.25;;;6.60;;
65641;SDS011;52340;-6.720;108.544;2023-07-30T02:33:42;15.57;;;6.65;;
65641;SDS011;52340;-6.720;108.544;2023-07-30T02:34:44;13.95;;;6.72;;
65641;SDS011;52340;-6.720;108.544;2023-07-30T02:35:46;14.82;;;7.00;;
65641;SDS011;52340;-6.720;108.544;2023-07-30T02:36:48;15.10;;;6.50;;
65641;SDS011;52340;-6.720;108.544;2023-07-30T02:37:50;16.98;;;6.95;;
65641;SDS011;52340;-6.720;108.544;2023-07-30T02:38:53;14.13;;;6.45;;
65641;SDS011;52340;-6.720;108.544;2023-07-30T02:39:55;12.88;;;6.30;;
65641;SDS011;52340;-6.720;108.544;2023-07-30T02:40:57;19.30;;;6.75;;
65641;SDS011;52340;-6.720;108.544;2023-07-30T02:41:59;14.02;;;6.38;;
65641;SDS011;52340;-6.720;108.544;2023-07-30T02:43:00;15.23;;;6.32;;
65641;SDS011;52340;-6.720;108.544;2023-07-30T02:44:02;14.77;;;6.65;;
65641;SDS011;52340;-6.720;108.544;2023-07-30T02:45:04;17.30;;;6.85;;
65641;SDS011;52340;-6.720;108.544;2023-07-30T02:46:07;17.45;;;6.45;;
65641;SDS011;52340;-6.720;108.544;2023-07-30T02:47:08;13.98;;;6.95;;
65641;SDS011;52340;-6.720;108.544;2023-07-30T02:48:10;17.63;;;6.75;;
65641;SDS011;52340;-6.720;108.544;2023-07-30T02:49:12;19.88;;;7.20;;
65641;SDS011;52340;-6.720;108.544;2023-07-30T02:50:13;15.10;;;6.82;;
65641;SDS011;52340;-6.720;108.544;2023-07-30T02:51:17;20.67;;;6.85;;
65641;SDS011;52340;-6.720;108.544;2023-07-30T02:52:19;12.30;;;6.13;;
65641;SDS011;52340;-6.720;108.544;2023-07-30T02:53:21;20.83;;;7.15;;
65641;SDS011;52340;-6.720;108.544;2023-07-30T02:54:24;14.35;;;7.50;;
65641;SDS011;52340;-6.720;108.544;2023-07-30T02:55:26;19.98;;;7.97;;
65641;SDS011;52340;-6.720;108.544;2023-07-30T02:56:28;21.02;;;9.07;;
65641;SDS011;52340;-6.720;108.544;2023-07-30T02:57:29;20.95;;;8.80;;
65641;SDS011;52340;-6.720;108.544;2023-07-30T02:58:31;20.10;;;8.30;;
65641;SDS011;52340;-6.720;108.544;2023-07-30T02:59:36;25.20;;;8.52;;
65641;SDS011;52340;-6.720;108.544;2023-07-30T03:00:38;20.63;;;8.20;;
65641;SDS011;52340;-6.720;108.544;2023-07-30T03:01:39;21.45;;;8.20;;
65641;SDS011;52340;-6.720;108.544;2023-07-30T03:02:41;20.40;;;7.65;;
65641;SDS011;52340;-6.720;108.544;2023-07-30T03:03:46;19.65;;;8.02;;
65641;SDS011;52340;-6.720;108.544;2023-07-30T03:04:48;19.10;;;7.25;;
65641;SDS011;52340;-6.720;108.544;2023-07-30T03:05:52;14.85;;;7.22;;
65641;SDS011;52340;-6.720;108.544;2023-07-30T03:06:54;17.75;;;7.85;;
65641;SDS011;52340;-6.720;108.544;2023-07-30T03:07:56;17.30;;;7.82;;
65641;SDS011;52340;-6.720;108.544;2023-07-30T03:09:00;15.15;;;7.10;;
65641;SDS011;52340;-6.720;108.544;2023-07-30T03:10:04;14.68;;;7.03;;
65641;SDS011;52340;-6.720;108.544;2023-07-30T03:11:06;19.40;;;7.35;;
65641;SDS011;52340;-6.720;108.544;2023-07-30T03:12:08;14.77;;;6.78;;
65641;SDS011;52340;-6.720;108.544;2023-07-30T03:13:10;14.50;;;7.05;;
65641;SDS011;52340;-6.720;108.544;2023-07-30T03:14:12;16.10;;;7.18;;
65641;SDS011;52340;-6.720;108.544;2023-07-30T03:15:13;16.83;;;7.55;;
65641;SDS011;52340;-6.720;108.544;2023-07-30T03:16:15;16.38;;;7.82;;
65641;SDS011;52340;-6.720;108.544;2023-07-30T03:17:17;18.17;;;7.50;;
65641;SDS011;52340;-6.720;108.544;2023-07-30T03:18:19;16.25;;;8.18;;
65641;SDS011;52340;-6.720;108.544;2023-07-30T03:19:20;17.52;;;7.53;;
65641;SDS011;52340;-6.720;108.544;2023-07-30T03:20:22;14.23;;;7.60;;
65641;SDS011;52340;-6.720;108.544;2023-07-30T03:21:25;17.88;;;8.05;;
65641;SDS011;52340;-6.720;108.544;2023-07-30T03:22:26;17.60;;;8.20;;
65641;SDS011;52340;-6.720;108.544;2023-07-30T03:23:28;17.90;;;8.07;;
65641;SDS011;52340;-6.720;108.544;2023-07-30T03:24:30;16.27;;;8.40;;
65641;SDS011;52340;-6.720;108.544;2023-07-30T03:25:33;16.13;;;8.27;;
65641;SDS011;52340;-6.720;108.544;2023-07-30T03:26:35;15.23;;;8.48;;
65641;SDS011;52340;-6.720;108.544;2023-07-30T03:27:37;18.77;;;8.63;;
65641;SDS011;52340;-6.720;108.544;2023-07-30T03:28:38;15.73;;;8.40;;
65641;SDS011;52340;-6.720;108.544;2023-07-30T03:29:40;19.88;;;8.90;;
65641;SDS011;52340;-6.720;108.544;2023-07-30T03:30:42;17.10;;;8.50;;
65641;SDS011;52340;-6.720;108.544;2023-07-30T03:31:44;20.50;;;8.68;;
65641;SDS011;52340;-6.720;108.544;2023-07-30T03:32:47;17.88;;;9.18;;
65641;SDS011;52340;-6.720;108.544;2023-07-30T03:33:52;15.35;;;8.02;;
65641;SDS011;52340;-6.720;108.544;2023-07-30T03:34:57;13.57;;;7.78;;
65641;SDS011;52340;-6.720;108.544;2023-07-30T03:35:58;17.90;;;9.10;;
65641;SDS011;52340;-6.720;108.544;2023-07-30T03:37:00;16.05;;;8.02;;
65641;SDS011;52340;-6.720;108.544;2023-07-30T03:38:02;16.02;;;8.55;;
65641;SDS011;52340;-6.720;108.544;2023-07-30T03:39:04;16.48;;;8.75;;
65641;SDS011;52340;-6.720;108.544;2023-07-30T03:40:06;20.88;;;8.95;;
65641;SDS011;52340;-6.720;108.544;2023-07-30T03:41:10;16.10;;;8.88;;
65641;SDS011;52340;-6.720;108.544;2023-07-30T03:42:12;17.95;;;9.20;;
65641;SDS011;52340;-6.720;108.544;2023-07-30T03:43:14;21.05;;;9.40;;
65641;SDS011;52340;-6.720;108.544;2023-07-30T03:44:18;15.57;;;8.65;;
65641;SDS011;52340;-6.720;108.544;2023-07-30T03:45:20;14.75;;;8.85;;
65641;SDS011;52340;-6.720;108.544;2023-07-30T03:46:22;16.42;;;9.20;;
65641;SDS011;52340;-6.720;108.544;2023-07-30T03:47:23;16.50;;;8.88;;
65641;SDS011;52340;-6.720;108.544;2023-07-30T03:48:25;17.77;;;9.40;;
65641;SDS011;52340;-6.720;108.544;2023-07-30T03:49:27;16.88;;;9.88;;
65641;SDS011;52340;-6.720;108.544;2023-07-30T03:50:29;17.50;;;8.98;;
65641;SDS011;52340;-6.720;108.544;2023-07-30T03:51:31;18.80;;;9.30;;
65641;SDS011;52340;-6.720;108.544;2023-07-30T03:52:33;16.30;;;8.85;;
65641;SDS011;52340;-6.720;108.544;2023-07-30T03:53:35;16.50;;;8.88;;
65641;SDS011;52340;-6.720;108.544;2023-07-30T03:54:39;17.10;;;8.75;;
65641;SDS011;52340;-6.720;108.544;2023-07-30T03:55:41;17.20;;;9.10;;
65641;SDS011;52340;-6.720;108.544;2023-07-30T03:56:45;17.45;;;8.82;;
65641;SDS011;52340;-6.720;108.544;2023-07-30T03:57:47;14.88;;;8.98;;
65641;SDS011;52340;-6.720;108.544;2023-07-30T03:58:48;18.15;;;8.82;;
65641;SDS011;52340;-6.720;108.544;2023-07-30T03:59:50;21.15;;;8.75;;
65641;SDS011;52340;-6.720;108.544;2023-07-30T04:00:52;19.75;;;9.30;;
65641;SDS011;52340;-6.720;108.544;2023-07-30T04:01:54;18.75;;;9.68;;
65641;SDS011;52340;-6.720;108.544;2023-07-30T04:02:56;14.95;;;9.38;;
65641;SDS011;52340;-6.720;108.544;2023-07-30T04:03:57;15.05;;;8.63;;
65641;SDS011;52340;-6.720;108.544;2023-07-30T04:04:59;16.73;;;8.85;;
65641;SDS011;52340;-6.720;108.544;2023-07-30T04:06:01;17.73;;;8.82;;
65641;SDS011;52340;-6.720;108.544;2023-07-30T04:07:03;18.50;;;9.02;;
65641;SDS011;52340;-6.720;108.544;2023-07-30T04:08:05;16.30;;;9.27;;
65641;SDS011;52340;-6.720;108.544;2023-07-30T04:09:09;21.67;;;9.82;;
65641;SDS011;52340;-6.720;108.544;2023-07-30T04:10:11;18.70;;;10.70;;
65641;SDS011;52340;-6.720;108.544;2023-07-30T04:11:13;17.88;;;9.68;;
65641;SDS011;52340;-6.720;108.544;2023-07-30T04:12:24;14.98;;;10.30;;
65641;SDS011;52340;-6.720;108.544;2023-07-30T04:13:37;17.92;;;10.60;;
65641;SDS011;52340;-6.720;108.544;2023-07-30T04:14:38;17.85;;;10.73;;
65641;SDS011;52340;-6.720;108.544;2023-07-30T04:15:40;17.25;;;10.38;;
65641;SDS011;52340;-6.720;108.544;2023-07-30T04:16:42;15.95;;;9.80;;
65641;SDS011;52340;-6.720;108.544;2023-07-30T04:17:44;17.15;;;9.95;;
65641;SDS011;52340;-6.720;108.544;2023-07-30T04:18:46;14.25;;;9.70;;
65641;SDS011;52340;-6.720;108.544;2023-07-30T04:19:49;16.58;;;10.35;;
65641;SDS011;52340;-6.720;108.544;2023-07-30T04:20:55;17.58;;;10.00;;
65641;SDS011;52340;-6.720;108.544;2023-07-30T04:22:00;15.48;;;9.75;;
65641;SDS011;52340;-6.720;108.544;2023-07-30T04:23:02;17.30;;;9.73;;
65641;SDS011;52340;-6.720;108.544;2023-07-30T04:24:04;15.20;;;9.63;;
65641;SDS011;52340;-6.720;108.544;2023-07-30T04:25:06;16.10;;;9.30;;
65641;SDS011;52340;-6.720;108.544;2023-07-30T04:26:10;18.67;;;9.82;;
65641;SDS011;52340;-6.720;108.544;2023-07-30T04:27:17;15.88;;;10.02;;
65641;SDS011;52340;-6.720;108.544;2023-07-30T04:28:23;16.52;;;9.70;;
65641;SDS011;52340;-6.720;108.544;2023-07-30T04:29:28;16.58;;;9.95;;
65641;SDS011;52340;-6.720;108.544;2023-07-30T04:30:32;15.40;;;9.75;;
65641;SDS011;52340;-6.720;108.544;2023-07-30T04:31:35;16.63;;;10.05;;
65641;SDS011;52340;-6.720;108.544;2023-07-30T04:32:37;16.95;;;10.23;;
65641;SDS011;52340;-6.720;108.544;2023-07-30T04:33:39;16.17;;;9.75;;
65641;SDS011;52340;-6.720;108.544;2023-07-30T04:34:41;15.88;;;9.82;;
65641;SDS011;52340;-6.720;108.544;2023-07-30T04:35:42;16.42;;;10.05;;
65641;SDS011;52340;-6.720;108.544;2023-07-30T04:36:47;15.50;;;10.10;;
65641;SDS011;52340;-6.720;108.544;2023-07-30T04:37:49;17.50;;;9.23;;
65641;SDS011;52340;-6.720;108.544;2023-07-30T04:38:51;17.25;;;10.02;;
65641;SDS011;52340;-6.720;108.544;2023-07-30T04:39:52;15.98;;;10.25;;
65641;SDS011;52340;-6.720;108.544;2023-07-30T04:40:54;16.55;;;9.85;;
65641;SDS011;52340;-6.720;108.544;2023-07-30T04:42:01;16.85;;;10.32;;
65641;SDS011;52340;-6.720;108.544;2023-07-30T04:43:12;19.15;;;10.60;;
65641;SDS011;52340;-6.720;108.544;2023-07-30T04:44:23;17.58;;;11.23;;
65641;SDS011;52340;-6.720;108.544;2023-07-30T04:45:25;19.90;;;11.27;;
65641;SDS011;52340;-6.720;108.544;2023-07-30T04:46:27;19.75;;;11.73;;
65641;SDS011;52340;-6.720;108.544;2023-07-30T04:47:29;18.83;;;10.93;;
65641;SDS011;52340;-6.720;108.544;2023-07-30T04:48:30;17.25;;;11.15;;
65641;SDS011;52340;-6.720;108.544;2023-07-30T04:49:32;21.00;;;11.48;;
65641;SDS011;52340;-6.720;108.544;2023-07-30T04:50:36;16.25;;;10.43;;
65641;SDS011;52340;-6.720;108.544;2023-07-30T04:51:38;18.25;;;10.90;;
65641;SDS011;52340;-6.720;108.544;2023-07-30T04:52:40;16.17;;;10.68;;
65641;SDS011;52340;-6.720;108.544;2023-07-30T04:53:42;21.63;;;11.45;;
65641;SDS011;52340;-6.720;108.544;2023-07-30T04:54:45;16.98;;;11.35;;
65641;SDS011;52340;-6.720;108.544;2023-07-30T04:55:48;19.40;;;11.93;;
65641;SDS011;52340;-6.720;108.544;2023-07-30T04:56:53;17.25;;;10.60;;
65641;SDS011;52340;-6.720;108.544;2023-07-30T04:57:55;16.13;;;10.10;;
65641;SDS011;52340;-6.720;108.544;2023-07-30T04:58:59;15.25;;;9.88;;
65641;SDS011;52340;-6.720;108.544;2023-07-30T05:00:01;17.70;;;10.15;;
65641;SDS011;52340;-6.720;108.544;2023-07-30T05:01:03;16.73;;;9.88;;
65641;SDS011;52340;-6.720;108.544;2023-07-30T05:02:05;16.73;;;9.80;;
65641;SDS011;52340;-6.720;108.544;2023-07-30T05:03:09;17.52;;;9.77;;
65641;SDS011;52340;-6.720;108.544;2023-07-30T05:04:23;15.88;;;10.05;;
65641;SDS011;52340;-6.720;108.544;2023-07-30T05:05:25;18.13;;;10.27;;
65641;SDS011;52340;-6.720;108.544;2023-07-30T05:06:26;14.65;;;9.63;;
65641;SDS011;52340;-6.720;108.544;2023-07-30T05:07:28;16.77;;;9.38;;
65641;SDS011;52340;-6.720;108.544;2023-07-30T05:08:30;17.45;;;9.90;;
65641;SDS011;52340;-6.720;108.544;2023-07-30T05:09:32;17.92;;;10.00;;
65641;SDS011;52340;-6.720;108.544;2023-07-30T05:10:34;18.70;;;10.63;;
65641;SDS011;52340;-6.720;108.544;2023-07-30T05:11:35;19.58;;;10.20;;
65641;SDS011;52340;-6.720;108.544;2023-07-30T05:12:37;16.55;;;9.50;;
65641;SDS011;52340;-6.720;108.544;2023-07-30T05:13:42;17.33;;;9.90;;
65641;SDS011;52340;-6.720;108.544;2023-07-30T05:14:45;13.57;;;9.50;;
65641;SDS011;52340;-6.720;108.544;2023-07-30T05:15:47;16.25;;;9.95;;
65641;SDS011;52340;-6.720;108.544;2023-07-30T05:16:49;16.15;;;9.70;;
65641;SDS011;52340;-6.720;108.544;2023-07-30T05:17:50;19.52;;;10.10;;
65641;SDS011;52340;-6.720;108.544;2023-07-30T05:18:55;17.08;;;9.65;;
65641;SDS011;52340;-6.720;108.544;2023-07-30T05:19:56;13.88;;;9.25;;
65641;SDS011;52340;-6.720;108.544;2023-07-30T05:20:58;16.58;;;9.10;;
65641;SDS011;52340;-6.720;108.544;2023-07-30T05:22:00;13.68;;;8.98;;
65641;SDS011;52340;-6.720;108.544;2023-07-30T05:23:02;15.45;;;9.77;;
65641;SDS011;52340;-6.720;108.544;2023-07-30T05:24:04;17.17;;;9.43;;
65641;SDS011;52340;-6.720;108.544;2023-07-30T05:25:06;16.95;;;9.15;;
65641;SDS011;52340;-6.720;108.544;2023-07-30T05:26:08;16.25;;;9.63;;
65641;SDS011;52340;-6.720;108.544;2023-07-30T05:27:10;17.27;;;9.50;;
65641;SDS011;52340;-6.720;108.544;2023-07-30T05:28:12;15.15;;;9.20;;
65641;SDS011;52340;-6.720;108.544;2023-07-30T05:29:13;18.15;;;10.05;;
65641;SDS011;52340;-6.720;108.544;2023-07-30T05:30:17;20.80;;;10.18;;
65641;SDS011;52340;-6.720;108.544;2023-07-30T05:31:22;15.57;;;9.27;;
65641;SDS011;52340;-6.720;108.544;2023-07-30T05:32:23;16.33;;;9.15;;
65641;SDS011;52340;-6.720;108.544;2023-07-30T05:33:26;14.43;;;9.50;;
65641;SDS011;52340;-6.720;108.544;2023-07-30T05:34:28;15.95;;;9.68;;
65641;SDS011;52340;-6.720;108.544;2023-07-30T05:35:30;19.75;;;10.27;;
65641;SDS011;52340;-6.720;108.544;2023-07-30T05:36:31;15.60;;;9.80;;
65641;SDS011;52340;-6.720;108.544;2023-07-30T05:37:34;16.23;;;9.55;;
65641;SDS011;52340;-6.720;108.544;2023-07-30T05:38:35;24.33;;;10.35;;
65641;SDS011;52340;-6.720;108.544;2023-07-30T05:39:37;15.30;;;9.77;;
65641;SDS011;52340;-6.720;108.544;2023-07-30T05:40:39;16.25;;;10.43;;
65641;SDS011;52340;-6.720;108.544;2023-07-30T05:41:42;16.35;;;10.02;;
65641;SDS011;52340;-6.720;108.544;2023-07-30T05:42:43;16.95;;;10.00;;
65641;SDS011;52340;-6.720;108.544;2023-07-30T05:43:48;16.27;;;10.00;;
65641;SDS011;52340;-6.720;108.544;2023-07-30T05:44:50;15.88;;;10.20;;
65641;SDS011;52340;-6.720;108.544;2023-07-30T05:45:53;16.45;;;9.82;;
65641;SDS011;52340;-6.720;108.544;2023-07-30T05:46:55;16.20;;;9.93;;
65641;SDS011;52340;-6.720;108.544;2023-07-30T05:47:59;17.80;;;9.80;;
65641;SDS011;52340;-6.720;108.544;2023-07-30T05:49:01;16.33;;;10.15;;
65641;SDS011;52340;-6.720;108.544;2023-07-30T05:50:03;16.67;;;9.93;;
65641;SDS011;52340;-6.720;108.544;2023-07-30T05:51:05;16.48;;;10.25;;
65641;SDS011;52340;-6.720;108.544;2023-07-30T05:52:07;17.67;;;10.73;;
65641;SDS011;52340;-6.720;108.544;2023-07-30T05:53:10;17.08;;;10.52;;
65641;SDS011;52340;-6.720;108.544;2023-07-30T05:54:14;17.58;;;10.20;;
65641;SDS011;52340;-6.720;108.544;2023-07-30T05:55:15;20.05;;;10.40;;
65641;SDS011;52340;-6.720;108.544;2023-07-30T05:56:18;16.67;;;10.40;;
65641;SDS011;52340;-6.720;108.544;2023-07-30T05:57:30;15.73;;;9.80;;
65641;SDS011;52340;-6.720;108.544;2023-07-30T05:58:33;18.55;;;10.20;;
65641;SDS011;52340;-6.720;108.544;2023-07-30T05:59:35;18.15;;;10.20;;